Coal Valley, IL

4:21 AM CST on December 06, 2016 (GMT -0600)
Quad-City International | | Change Station
Active Advisory: Special Statement

Elev 594 ft 41.45 °N, 90.51 °W | Updated 29 minutes ago

Overcast
Overcast
34 °F
Feels Like 28 °F
N
7
Wind Variable Wind from East

Today
High -- | Low -- °F
--% Chance of Precip.
Yesterday
High -- | Low -- °F
Precip. -- in
Pressure 29.83 in
Visibility 0.8 miles
Clouds Overcast 200 ft
Windchill 28 °F
Dew Point 32 °F
Humidity 92%
Rainfall 0.00 in
Snow Depth Not available.
7:14 AM 4:32 PM
Waxing Crescent, 40% visible
METAR KMLI 060952Z 08006KT 3/4SM R09/3000V3500FT BR OVC002 01/00 A2981 RMK AO2 SLP099 T00110000
Pressure 29.83 in
Visibility 0.8 miles
Clouds Overcast 200 ft
Windchill 28 °F
Dew Point 32 °F
Humidity 92%
Rainfall 0.00 in
Snow Depth Not available.
7:14 AM 4:32 PM
Waxing Crescent, 40% visible
METAR KMLI 060952Z 08006KT 3/4SM R09/3000V3500FT BR OVC002 01/00 A2981 RMK AO2 SLP099 T00110000

10-Day Weather Forecast

Almanac

Astronomy

Dec. 06, 2016 Rise Set
Actual Time
Civil Twilight
Nautical Twilight
Astronomical Twilight
Moon
Length of Visible Light
Length of Day
Tomorrow will be .
, % of the Moon is Illuminated

Today's Extremes

State Highs State Lows

Community

WunderPhotos

Upload Photos

1,955,935 photos uploaded!

WunderBlog® & News

Nearby

Air Quality

  Air Quality AQ Index Pollutant
Not available.

Snow Depth

Station Depth Elevation

Earthquake Activity

City Distance Mag. Time & Date
Minimum magnitude displayed is 2.5.

Coastal Water Temperatures

Place Temperature

Stations

Nearby Weather Stations

Station Location Temp. Windchill Dew Point Humidity Wind Precip. Elev Updated Type
                   

Watches & Warnings

Special Statement
Issued: 2:35 AM CST Dec. 6, 2016 – National Weather Service

... Areas of fog... locally dense developing...

Areas of fog are developing across the region with visibilities locally
ranging below a half mile at times. Motorist should drive defensively
and slow down when encountering reduced visibilities.

Conditions will begin to improve from west to east between 6 and 9 am
as west winds develop behind a cold front.


Nichols

235 am CST Tue Dec 6 2016

... Areas of fog... locally dense developing...

Areas of fog are developing across the region with visibilities locally
ranging below a half mile at times. Motorist should drive defensively
and slow down when encountering reduced visibilities.

Conditions will begin to improve from west to east between 6 and 9 am
as west winds develop behind a cold front.


Nichols


235 am CST Tue Dec 6 2016

... Areas of fog... locally dense developing...

Areas of fog are developing across the region with visibilities locally
ranging below a half mile at times. Motorist should drive defensively
and slow down when encountering reduced visibilities.

Conditions will begin to improve from west to east between 6 and 9 am
as west winds develop behind a cold front.


Nichols